Date,TemperatureHighF,TemperatureAvgF,TemperatureLowF,DewpointHighF,DewpointAvgF,DewpointLowF,HumidityHigh,HumidityAvg,HumidityLow,PressureMaxIn,PressureMinIn,WindSpeedMaxMPH,WindSpeedAvgMPH,GustSpeedMaxMPH,PrecipitationSumIn
2012-1-1,42,34,27,31,20,8,77,57,26,30.61,30.01,34,14,35,0.00
2012-1-2,35,25,15,15,11,7,73,57,34,30.70,30.51,20,7,23,0.00
2012-1-3,51,33,14,32,21,7,75,63,47,30.51,29.97,23,6,29,0.00
2012-1-4,58,44,30,33,30,24,80,59,36,30.29,30.07,20,6,20,0.00
2012-1-5,68,47,31,37,31,25,79,57,31,30.08,29.67,16,3,17,0.00
2012-1-6,52,42,31,35,28,21,79,60,41,30.07,29.66,19,6,24,0.00
2012-1-7,45,32,22,29,23,17,87,72,52,30.29,30.07,7,1,7,0.00
2012-1-8,46,34,26,30,26,22,92,75,50,30.37,30.28,10,1,10,0.00
2012-1-9,53,38,26,32,27,23,89,69,40,30.28,30.05,13,3,13,0.00
2012-1-10,63,41,26,38,30,21,88,68,38,30.06,29.68,11,2,11,0.00
2012-1-11,39,31,21,34,24,13,88,76,66,30.05,29.60,35,16,40,0.00
2012-1-12,21,15,12,13,8,4,81,73,65,30.12,30.02,31,13,31,0.00
2012-1-13,33,20,7,18,8,2,80,62,35,30.19,29.90,13,4,13,0.00
2012-1-14,45,32,24,30,20,14,77,60,38,30.19,29.88,21,5,23,0.00
2012-1-15,55,39,26,30,24,16,71,57,36,30.12,29.71,20,5,22,0.00
2012-1-16,39,32,22,28,22,13,79,68,56,29.97,29.71,25,10,26,0.00
2012-1-17,25,18,8,15,10,3,83,72,55,30.40,29.96,29,10,31,0.00
2012-1-18,40,22,9,26,14,4,92,71,53,30.35,29.84,22,8,24,0.00
2012-1-19,16,10,6,6,0,-3,76,62,49,30.24,30.02,21,7,21,0.00
2012-1-20,26,15,8,10,5,0,80,65,49,30.31,29.98,21,7,24,0.00
2012-1-21,24,18,7,20,12,2,85,79,74,30.30,29.68,22,8,24,0.00
2012-1-22,46,34,24,39,30,20,94,83,65,29.68,29.40,22,9,23,0.00
2012-1-23,34,28,12,30,23,10,93,84,74,30.12,29.61,27,8,30,0.00
2012-1-24,35,24,9,31,21,6,93,88,82,30.29,30.10,13,3,14,0.00
2012-1-25,38,31,23,34,29,22,97,92,83,30.26,29.95,14,2,15,0.00
2012-1-26,48,35,22,35,28,18,95,75,53,29.97,29.89,27,7,31,0.00
2012-1-27,45,32,23,33,25,19,89,76,54,30.24,29.88,26,6,28,0.00
2012-1-28,46,33,22,22,17,12,80,54,28,30.27,30.16,27,8,36,0.00
2012-1-29,42,32,20,22,18,11,75,56,44,30.27,29.92,14,3,15,0.00
2012-1-30,70,51,33,37,28,21,63,43,23,29.93,29.68,22,7,22,0.00
2012-1-31,61,46,31,38,33,23,79,61,39,30.06,29.72,22,6,23,0.00
2012-2-1,62,40,24,34,25,19,88,60,28,30.17,30.05,16,2,16,0.00
2012-2-2,55,38,23,34,27,18,84,65,43,30.24,30.16,14,3,14,0.00
2012-2-3,49,41,34,40,36,32,96,83,54,30.26,30.12,31,11,33,0.21
2012-2-4,34,33,31,33,32,31,98,98,96,30.31,30.18,21,10,22,0.07
2012-2-5,32,22,12,29,19,10,100,91,80,30.47,30.37,9,2,12,0.03
2012-2-6,38,23,6,32,20,4,100,88,76,30.37,30.21,7,1,9,0.07
2012-2-7,33,29,25,30,26,22,91,89,86,30.56,30.26,18,10,21,0.00
2012-2-8,28,24,22,23,21,19,89,85,75,30.56,30.39,12,3,12,0.00
2012-2-9,35,30,23,31,27,21,94,89,82,30.39,30.07,20,5,23,0.00
2012-2-10,29,16,4,25,9,-3,86,72,57,30.68,30.10,27,12,28,0.00
2012-2-11,16,6,-1,5,-1,-6,83,71,54,30.90,30.67,13,5,14,0.00
2012-2-12,30,15,-3,20,8,-7,87,75,59,30.72,30.11,17,4,17,0.00
2012-2-13,33,28,19,31,27,17,96,93,68,30.11,29.75,19,3,19,0.05
2012-2-14,39,27,14,33,24,11,96,89,78,29.90,29.81,12,2,12,0.01
2012-2-15,40,32,20,35,30,18,98,92,81,30.18,29.87,14,4,14,0.00
2012-2-16,42,34,24,32,28,22,92,79,57,30.31,30.11,11,3,11,0.00
2012-2-17,42,35,26,33,29,22,85,78,65,30.26,30.03,17,5,17,0.00
2012-2-18,39,29,19,26,22,16,91,77,57,30.32,30.17,5,1,6,0.00
2012-2-19,42,32,19,35,27,18,94,83,72,30.17,29.96,16,4,16,0.00
2012-2-20,41,38,35,41,35,29,100,90,73,29.98,29.58,24,10,27,0.31
2012-2-21,46,38,34,36,32,28,98,80,64,29.86,29.63,20,7,22,0.00
2012-2-22,53,43,34,40,36,31,88,76,56,29.63,29.37,14,4,16,0.02
2012-2-23,46,39,32,42,36,30,97,89,78,29.84,29.24,36,11,36,0.02
2012-2-24,42,33,26,34,27,18,95,78,53,30.29,29.84,36,12,36,0.01
2012-2-25,38,30,20,29,22,15,83,71,59,30.33,29.71,26,9,26,0.00
2012-2-26,52,42,29,34,29,23,78,61,44,30.30,29.69,22,8,28,0.00
2012-2-27,40,30,20,26,20,15,83,68,48,30.56,30.29,18,5,18,0.00
2012-2-28,55,44,35,53,39,25,99,84,63,30.29,29.29,29,10,34,0.31
2012-2-29,43,34,28,38,28,25,92,78,67,29.88,29.38,33,15,35,0.00
2012-3-1,51,35,23,38,30,21,96,84,57,29.89,29.64,19,5,21,0.01
2012-3-2,47,37,30,32,28,22,90,72,43,29.95,29.69,30,11,32,0.00
2012-3-3,42,32,25,26,22,20,83,67,49,30.02,29.93,23,9,29,0.00
2012-3-4,53,36,24,39,28,21,91,74,46,30.23,29.84,37,8,40,0.00
2012-3-5,61,40,22,34,28,19,98,65,35,30.27,29.78,31,7,31,0.00
2012-3-6,70,60,43,52,42,31,74,54,38,29.78,29.55,28,13,32,0.00
2012-3-7,61,46,32,52,39,26,87,76,62,30.13,29.46,38,15,38,0.00
2012-3-8,52,39,24,27,20,15,86,52,24,30.43,30.12,25,8,25,0.00
2012-3-9,65,44,24,30,24,18,84,48,20,30.56,30.27,23,6,24,0.00
2012-3-10,68,54,39,31,28,24,65,41,19,30.27,30.00,32,11,35,0.00
2012-3-11,50,47,43,47,41,30,98,82,57,30.04,29.70,16,5,19,0.14
2012-3-12,72,54,42,53,47,41,98,81,47,29.92,29.65,19,6,20,0.06
2012-3-13,82,60,41,54,46,39,98,66,26,29.96,29.73,23,5,24,0.00
2012-3-14,82,66,52,60,50,40,98,62,24,29.90,29.70,17,4,19,0.00
2012-3-15,78,58,39,64,50,35,98,78,57,29.97,29.86,14,2,16,0.00
2012-3-16,81,62,47,63,56,45,100,82,46,29.90,29.72,19,4,19,0.00
2012-3-17,83,70,59,64,61,57,97,77,50,29.76,29.59,31,10,33,0.00
2012-3-18,81,71,64,63,62,60,87,73,52,29.68,29.58,31,14,34,0.00
2012-3-19,71,63,56,62,58,53,94,84,55,29.64,29.44,30,9,30,0.10
2012-3-20,57,55,53,56,54,52,100,96,92,29.86,29.64,16,4,16,0.17
2012-3-21,62,58,54,60,57,54,100,97,92,29.92,29.81,25,6,25,0.16
2012-3-22,64,57,50,59,52,47,98,83,56,29.93,29.81,22,5,24,0.07
2012-3-23,71,57,45,54,48,44,98,76,47,29.95,29.87,16,2,16,0.00
2012-3-24,81,61,42,52,47,40,98,65,30,29.98,29.90,12,1,12,0.00
2012-3-25,81,63,47,58,50,44,96,66,33,30.05,29.91,14,2,15,0.00
2012-3-26,84,70,58,61,56,50,81,62,39,29.97,29.66,32,11,32,0.00
2012-3-27,79,68,55,58,46,33,84,48,20,29.90,29.63,29,8,31,0.00
2012-3-28,75,60,42,48,42,36,85,56,31,30.01,29.85,19,6,21,0.00
2012-3-29,68,62,58,62,55,45,96,79,49,29.86,29.61,24,10,29,0.00
2012-3-30,78,62,47,59,51,43,98,74,29,29.80,29.65,15,4,17,0.05
2012-3-31,91,70,51,63,52,43,94,60,19,29.72,29.54,24,5,26,0.00
2012-4-1,90,73,56,66,61,52,97,68,37,29.57,29.32,25,6,26,0.00
2012-4-2,90,72,58,65,59,53,95,66,32,29.76,29.33,26,9,26,0.00
2012-4-3,67,58,50,54,49,45,85,73,56,29.93,29.75,23,11,27,0.00
2012-4-4,61,58,54,51,47,42,76,67,59,29.91,29.77,16,5,17,0.00
2012-4-5,66,56,46,49,42,35,91,63,35,30.05,29.81,21,5,21,0.03
2012-4-6,66,53,36,42,38,31,86,59,35,30.15,29.91,27,8,27,0.00
2012-4-7,63,55,43,49,37,26,92,55,25,30.33,29.95,30,9,30,0.04
2012-4-8,73,54,33,40,31,26,84,47,24,30.36,30.08,28,6,30,0.00
2012-4-9,67,54,36,33,27,23,65,38,22,30.22,30.11,22,5,22,0.00
2012-4-10,62,48,32,26,23,19,66,40,23,30.29,30.17,15,4,17,0.01
2012-4-11,58,45,32,26,23,19,62,42,26,30.37,30.16,15,4,16,0.00
2012-4-12,51,48,40,48,40,26,93,74,50,30.17,29.83,22,10,25,0.23
2012-4-13,76,61,49,58,50,47,94,71,39,29.83,29.62,27,11,28,0.03
2012-4-14,63,56,44,63,54,42,99,94,74,29.78,29.36,28,6,30,0.89
2012-4-15,68,60,45,62,52,41,99,79,39,29.49,29.19,46,14,46,0.57
2012-4-16,59,51,44,45,40,36,85,67,45,30.23,29.49,34,12,37,0.00
2012-4-17,74,56,40,54,46,36,96,72,44,30.26,29.98,27,8,30,0.06
2012-4-18,71,63,53,56,52,49,89,69,52,30.00,29.81,20,4,22,0.13
2012-4-19,64,54,44,59,50,42,95,89,75,29.93,29.65,25,8,25,0.12
2012-4-20,59,48,39,42,38,33,93,69,44,30.12,29.93,23,8,25,0.00
2012-4-21,73,56,40,48,39,34,82,56,26,30.05,29.86,28,8,29,0.00
2012-4-22,61,52,43,41,39,35,82,62,40,30.25,30.02,33,11,33,0.00
2012-4-23,71,54,34,45,38,32,93,60,30,30.25,29.84,16,3,23,0.00
2012-4-24,86,66,52,57,50,42,78,57,32,29.85,29.49,13,4,16,0.00
2012-4-25,91,75,59,59,51,40,79,46,19,29.74,29.42,29,8,29,0.00
2012-4-26,72,64,54,52,48,44,74,56,41,29.98,29.74,20,6,20,0.00
2012-4-27,63,55,48,48,43,39,92,66,48,29.95,29.55,37,17,39,0.44
2012-4-28,60,52,45,52,48,43,95,86,71,30.08,29.67,16,6,17,0.00
2012-4-29,52,50,46,50,48,44,97,95,89,30.07,29.96,13,4,14,0.17
2012-4-30,71,58,49,59,53,48,97,83,59,30.01,29.77,17,4,18,0.00
2012-5-1,84,71,58,68,63,56,98,78,56,29.77,29.48,24,8,28,0.46
2012-5-2,83,73,64,72,68,61,99,85,66,29.66,29.51,18,5,21,0.12
2012-5-3,82,71,62,72,66,59,97,85,66,29.77,29.60,28,4,28,0.59
2012-5-4,88,76,66,75,70,66,100,85,56,29.77,29.64,18,4,20,0.00
2012-5-5,92,80,70,75,71,66,99,76,44,29.75,29.59,23,8,25,0.00
2012-5-6,77,67,59,70,62,54,95,84,67,29.99,29.64,28,10,32,0.96
2012-5-7,69,60,52,54,47,42,86,66,42,30.09,29.99,23,9,25,0.00
2012-5-8,66,57,47,46,43,40,81,61,40,30.06,29.97,24,8,29,0.00
2012-5-9,71,56,43,49,45,40,91,68,38,30.10,29.90,15,3,21,0.00
2012-5-10,86,71,50,57,52,44,81,53,30,29.90,29.67,26,9,29,0.00
2012-5-11,72,64,53,55,49,39,72,57,39,30.22,29.74,24,10,24,0.00
2012-5-12,69,60,49,47,43,40,75,55,40,30.33,30.22,17,6,18,0.00
2012-5-13,76,64,51,49,45,39,82,52,31,30.26,30.10,10,2,12,0.00
2012-5-14,83,67,48,53,46,38,87,51,22,30.11,29.92,16,2,18,0.00
2012-5-15,86,72,59,54,47,33,77,45,18,30.02,29.90,25,8,25,0.00
2012-5-16,80,64,46,44,41,37,77,46,23,30.11,29.92,16,4,19,0.00
2012-5-17,91,75,58,57,50,43,63,44,24,29.93,29.67,33,10,34,0.00
2012-5-18,91,78,66,60,58,55,73,52,32,29.73,29.58,31,11,35,0.00
2012-5-19,85,77,70,67,62,58,73,60,51,29.75,29.58,40,9,43,0.27
2012-5-20,70,63,56,56,52,47,89,68,47,30.24,29.94,23,10,23,0.27
2012-5-21,77,64,48,50,46,44,92,57,32,30.27,30.02,17,3,17,0.00
2012-5-22,86,72,59,55,50,46,66,47,32,30.03,29.60,28,10,33,0.00
2012-5-23,93,77,65,68,59,49,95,56,37,29.61,29.25,40,11,46,0.54
2012-5-24,72,64,58,68,59,54,95,83,67,29.75,29.32,25,8,27,0.00
2012-5-25,72,63,56,63,58,54,96,85,67,29.94,29.75,21,7,23,0.04
2012-5-26,96,80,64,76,68,58,90,71,45,29.87,29.63,25,11,27,0.00
2012-5-27,92,82,66,71,67,62,90,61,43,29.69,29.46,30,14,37,0.17
2012-5-28,78,70,62,67,59,50,99,72,38,29.79,29.58,25,6,25,0.25
2012-5-29,76,66,55,57,50,46,90,59,36,30.00,29.78,18,6,20,0.00
2012-5-30,68,59,50,58,50,45,90,73,50,30.02,29.77,14,4,16,0.16
2012-5-31,62,54,48,53,49,45,95,84,61,30.04,29.89,22,8,23,0.03
2012-6-1,65,56,43,54,48,41,96,76,52,30.03,29.82,15,3,16,0.02
2012-6-2,82,67,52,59,51,45,91,61,28,29.85,29.75,21,5,22,0.00
2012-6-3,89,75,58,70,60,50,78,62,47,29.79,29.65,19,5,20,0.00
2012-6-4,88,78,67,65,61,56,83,58,35,29.87,29.74,20,5,20,0.00
2012-6-5,88,76,60,65,61,56,88,60,39,29.91,29.78,15,3,17,0.00
2012-6-6,87,76,62,62,59,55,80,58,38,29.95,29.82,15,4,19,0.00
2012-6-7,86,75,64,62,59,56,80,58,41,30.03,29.92,17,5,17,0.00
2012-6-8,89,77,63,63,58,54,73,53,33,29.98,29.74,26,8,26,0.00
2012-6-9,92,80,65,65,59,54,70,51,33,29.76,29.52,25,10,30,0.00
2012-6-10,89,78,66,72,66,63,93,69,54,29.72,29.52,27,9,28,0.04
2012-6-11,82,70,58,63,55,50,96,64,35,30.04,29.71,23,7,24,0.01
2012-6-12,76,66,53,55,51,46,79,60,41,30.19,30.03,14,3,17,0.00
2012-6-13,87,74,62,62,57,52,75,56,39,30.07,29.74,23,10,30,0.00
2012-6-14,91,77,65,72,66,60,96,73,52,29.88,29.63,36,10,37,1.44
2012-6-15,73,68,64,68,65,62,98,92,80,29.92,29.75,22,5,24,0.75
2012-6-16,78,66,61,70,64,60,99,94,76,29.97,29.86,18,3,18,0.19
2012-6-17,91,81,64,77,71,63,98,74,55,29.86,29.46,29,10,31,0.00
2012-6-18,94,84,77,78,71,65,78,66,55,29.46,29.39,29,14,31,0.00
2012-6-19,92,85,76,75,72,69,80,65,55,29.64,29.53,33,14,35,0.00
2012-6-20,83,74,61,74,68,59,95,81,71,29.96,29.59,26,10,28,1.10
2012-6-21,81,69,58,64,60,57,98,75,46,30.09,29.95,15,4,19,0.01
2012-6-22,84,72,58,65,61,56,96,73,46,30.04,29.83,18,4,18,0.00
2012-6-23,84,73,62,75,67,59,97,81,68,29.97,29.69,37,10,39,0.49
2012-6-24,78,73,71,73,71,69,96,94,86,29.79,29.73,13,4,14,0.00
2012-6-25,85,80,72,76,73,67,84,78,72,29.91,29.82,19,10,23,0.00
2012-6-26,87,76,66,74,67,57,86,73,64,29.85,29.59,20,9,24,0.00
2012-6-27,100,88,77,81,75,70,86,67,50,29.66,29.55,19,7,21,0.00
2012-6-28,94,85,75,84,78,71,95,83,67,29.82,29.66,15,3,16,0.00
2012-6-29,89,82,76,80,74,69,97,78,59,29.83,29.67,17,4,18,0.05
2012-6-30,92,86,77,79,77,73,93,75,60,29.77,29.69,14,4,14,0.00
2012-7-1,94,82,70,78,73,68,96,77,54,29.85,29.73,15,3,15,0.00
2012-7-2,94,83,70,76,72,66,90,71,48,29.84,29.73,18,4,20,0.00
2012-7-3,97,84,73,78,73,68,89,69,50,29.77,29.66,16,5,19,0.00
2012-7-4,97,86,77,78,72,65,79,62,48,29.74,29.66,23,6,23,0.00
2012-7-5,100,88,78,77,72,67,76,60,42,29.83,29.72,15,5,17,0.00
2012-7-6,100,87,72,79,72,67,85,63,38,29.86,29.80,15,4,16,0.00
2012-7-7,86,79,72,76,72,68,93,81,71,30.00,29.83,17,6,20,0.00
2012-7-8,84,78,70,71,67,64,82,71,58,30.07,29.97,16,6,18,0.00
2012-7-9,89,79,66,69,66,63,89,66,47,30.08,29.98,14,4,16,0.00
2012-7-10,85,75,62,66,61,57,95,66,40,30.09,30.00,15,4,15,0.00
2012-7-11,88,75,60,69,63,57,96,69,41,30.07,29.93,10,2,10,0.00
2012-7-12,94,81,63,71,67,61,97,66,35,29.97,29.85,11,2,12,0.00
2012-7-13,96,82,70,75,70,65,89,69,43,29.91,29.84,9,1,10,0.00
2012-7-14,97,81,67,75,69,59,95,70,29,29.95,29.85,10,2,11,0.00
2012-7-15,98,85,69,74,70,66,94,65,39,29.93,29.81,13,4,17,0.00
2012-7-16,95,85,68,72,69,62,82,60,43,29.85,29.70,17,5,22,0.00
2012-7-17,99,84,70,74,70,65,86,65,37,29.75,29.66,14,3,17,0.00
2012-7-18,99,86,73,78,71,66,83,65,46,29.79,29.68,15,3,15,0.00
2012-7-19,98,85,71,78,72,66,97,69,38,29.95,29.78,12,2,13,0.00
2012-7-20,96,82,70,77,72,68,94,73,45,30.02,29.92,12,3,13,0.00
2012-7-21,98,82,69,72,68,64,86,65,36,30.01,29.85,14,4,14,0.00
2012-7-22,103,86,69,73,66,62,80,55,27,29.96,29.81,21,6,24,0.00
2012-7-23,103,87,71,72,68,64,82,56,30,29.94,29.79,15,3,15,0.00
2012-7-24,102,89,76,72,69,66,71,54,34,29.81,29.63,17,5,18,0.00
2012-7-25,101,88,76,76,70,66,92,56,38,29.67,29.51,20,8,24,0.22
2012-7-26,95,83,72,76,70,61,97,70,33,29.85,29.66,17,5,20,0.00
2012-7-27,86,75,62,65,62,58,89,67,46,30.01,29.85,17,4,19,0.00
2012-7-28,89,77,64,69,64,61,91,67,50,30.05,29.85,21,6,22,0.00
2012-7-29,98,83,67,73,68,62,86,63,37,29.88,29.79,14,3,14,0.00
2012-7-30,98,84,74,74,69,63,89,65,34,29.90,29.81,13,2,13,0.00
2012-7-31,98,82,66,75,69,63,94,67,40,29.91,29.81,10,2,10,0.00
2012-8-1,99,83,70,72,68,65,88,63,34,29.88,29.70,14,3,15,0.00
2012-8-2,94,82,70,74,70,67,96,71,49,29.80,29.70,21,4,25,0.04
2012-8-3,97,83,70,74,70,66,93,68,43,29.81,29.63,14,3,18,0.00
2012-8-4,82,74,63,71,63,57,91,71,44,30.00,29.67,33,8,39,0.08
2012-8-5,85,71,57,63,59,54,93,68,42,30.20,30.00,14,3,16,0.00
2012-8-6,97,78,59,62,59,55,89,56,27,30.10,29.87,19,4,19,0.00
2012-8-7,101,83,65,71,64,58,78,55,30,29.89,29.80,19,3,24,0.00
2012-8-8,97,80,69,75,66,53,86,65,30,29.89,29.72,24,3,26,0.01
2012-8-9,86,74,64,66,63,58,94,70,43,29.99,29.89,20,6,22,0.00
2012-8-10,81,68,54,59,56,52,95,69,44,30.09,29.98,17,4,18,0.00
2012-8-11,82,67,52,64,57,50,96,73,40,30.06,29.87,12,3,15,0.04
2012-8-12,81,71,64,67,62,59,87,75,58,29.92,29.79,23,7,23,0.00
2012-8-13,80,68,61,62,59,54,92,74,45,30.08,29.91,19,6,19,0.00
2012-8-14,86,71,54,65,59,51,94,70,46,29.99,29.79,20,4,20,0.01
2012-8-15,93,76,59,70,64,57,93,69,44,29.83,29.62,23,6,26,0.00
2012-8-16,78,68,56,67,54,49,79,62,40,30.06,29.74,23,9,23,0.00
2012-8-17,80,64,47,54,48,44,91,61,31,30.12,29.97,17,3,17,0.00
2012-8-18,73,58,47,59,51,42,92,78,50,30.04,29.91,22,3,26,0.13
2012-8-19,80,64,48,58,52,47,97,69,37,30.08,29.94,11,2,12,0.01
2012-8-20,88,70,51,58,53,48,93,60,30,30.00,29.85,17,2,18,0.00
2012-8-21,94,75,55,59,56,51,88,56,27,29.97,29.86,15,3,16,0.00
2012-8-22,91,76,60,65,57,51,75,54,34,29.92,29.80,25,5,29,0.00
2012-8-23,92,80,68,67,62,54,72,55,43,29.86,29.75,22,7,27,0.00
2012-8-24,78,71,67,70,67,64,96,87,72,29.85,29.79,20,5,20,0.12
2012-8-25,74,69,66,72,67,63,98,94,84,29.87,29.76,14,3,16,0.45
2012-8-26,83,73,68,72,69,66,99,88,66,30.02,29.85,10,2,11,0.00
2012-8-27,92,76,60,74,66,60,100,77,43,30.12,29.99,12,2,14,0.01
2012-8-28,95,79,65,66,62,59,92,62,30,30.06,29.84,20,5,25,0.00
2012-8-29,98,80,62,64,60,56,86,55,26,29.90,29.76,28,6,28,0.00
2012-8-30,99,82,65,65,62,59,82,54,30,29.86,29.77,22,5,23,0.00
2012-8-31,97,78,60,71,63,56,92,65,31,29.93,29.83,14,2,14,0.00
2012-9-1,93,78,65,72,67,63,98,72,44,29.95,29.84,13,2,15,0.00
2012-9-2,96,78,62,70,66,60,96,69,41,29.91,29.76,13,2,15,0.00
2012-9-3,84,77,70,75,70,65,92,79,63,29.87,29.76,17,3,17,0.00
2012-9-4,101,81,65,74,67,57,99,67,30,29.82,29.62,19,3,21,0.01
2012-9-5,88,74,59,63,55,49,82,55,27,29.89,29.64,23,5,24,0.00
2012-9-6,92,71,49,66,54,45,92,59,30,29.96,29.69,19,4,19,0.00
2012-9-7,75,67,55,66,55,45,81,65,40,30.08,29.69,25,8,26,0.00
2012-9-8,85,66,47,50,45,41,86,54,21,30.16,29.91,22,5,22,0.00
2012-9-9,78,62,46,51,47,41,84,59,36,30.20,30.04,11,2,12,0.00
2012-9-10,88,69,52,55,51,46,84,57,30,30.09,29.82,28,7,28,0.00
2012-9-11,96,78,58,55,53,50,80,47,23,29.85,29.73,28,8,31,0.00
2012-9-12,77,66,55,60,54,48,96,67,42,30.25,29.80,28,7,31,1.05
2012-9-13,70,58,51,55,51,48,96,79,51,30.40,30.22,15,2,16,0.05
2012-9-14,80,63,47,53,48,41,94,63,28,30.35,30.21,18,4,19,0.00
2012-9-15,78,63,45,60,52,42,92,71,45,30.24,30.03,14,3,16,0.00
2012-9-16,79,65,55,63,59,54,98,82,49,30.05,29.84,15,4,15,0.00
2012-9-17,68,59,49,61,52,41,99,80,38,30.04,29.84,20,5,21,0.04
2012-9-18,72,55,39,47,42,36,94,65,31,30.11,29.90,13,2,13,0.00
2012-9-19,92,66,49,56,46,37,88,53,21,29.97,29.72,30,6,32,0.00
2012-9-20,75,60,46,47,40,32,74,51,26,30.03,29.90,15,3,17,0.00
2012-9-21,76,64,53,48,42,36,75,48,24,29.90,29.78,31,7,32,0.00
2012-9-22,65,54,40,41,32,23,70,46,22,30.27,29.90,17,6,21,0.00
2012-9-23,70,51,34,39,34,29,87,57,27,30.35,30.17,10,2,10,0.00
2012-9-24,74,59,42,52,45,36,83,61,41,30.18,29.79,13,2,13,0.00
2012-9-25,83,65,49,55,50,46,91,61,29,29.86,29.76,10,1,12,0.00
2012-9-26,77,62,49,46,39,31,76,47,20,30.11,29.82,15,3,15,0.00
2012-9-27,77,57,38,42,34,29,81,48,19,30.20,30.08,10,1,12,0.00
2012-9-28,76,55,37,44,38,32,83,58,22,30.18,30.07,12,1,12,0.00
2012-9-29,79,59,39,53,43,35,92,61,28,30.16,30.00,9,1,9,0.00
2012-9-30,82,61,44,49,44,39,86,58,29,30.02,29.86,6,1,6,0.00
2012-10-1,72,59,44,55,46,40,87,64,42,29.98,29.86,25,7,30,0.00
2012-10-2,75,56,39,41,35,28,83,51,18,29.98,29.82,10,3,11,0.00
2012-10-3,82,62,40,47,39,31,78,47,22,29.91,29.71,24,5,29,0.00
2012-10-4,63,51,43,46,38,33,85,63,44,30.31,29.91,26,11,31,0.03
2012-10-5,53,42,34,33,29,24,85,63,34,30.37,30.25,16,4,18,0.00
2012-10-6,48,39,28,28,25,21,77,59,44,30.41,30.31,19,5,20,0.00
2012-10-7,57,40,22,34,27,18,90,62,34,30.33,30.03,21,4,26,0.00
2012-10-8,73,55,40,38,36,31,80,53,24,30.03,29.74,25,8,30,0.00
2012-10-9,58,50,37,45,33,24,79,53,33,30.14,29.76,27,7,28,0.00
2012-10-10,65,48,26,35,30,21,83,53,31,30.25,30.03,18,4,19,0.00
2012-10-11,65,52,43,42,35,31,69,52,38,30.34,29.98,24,6,28,0.00
2012-10-12,55,47,34,45,32,24,75,56,37,30.35,29.99,20,7,24,0.00
2012-10-13,74,63,52,67,59,45,98,87,73,30.00,29.51,22,5,23,0.44
2012-10-14,67,58,48,61,46,40,94,68,40,29.95,29.55,26,10,29,0.17
2012-10-15,76,57,38,52,45,36,94,68,37,29.97,29.70,13,3,15,0.00
2012-10-16,80,64,50,51,48,46,90,60,32,29.70,29.34,19,5,20,0.00
2012-10-17,68,59,52,52,40,24,88,51,27,29.58,29.27,39,12,39,0.02
2012-10-18,52,49,45,42,34,26,90,58,37,29.64,29.49,46,20,46,0.12
2012-10-19,50,46,39,44,41,36,92,84,75,29.82,29.63,31,12,33,0.02
2012-10-20,67,48,32,48,41,30,97,78,47,29.82,29.65,17,4,18,0.00
2012-10-21,80,61,44,65,54,41,93,79,56,29.75,29.65,14,3,20,0.00
2012-10-22,65,59,55,63,56,52,97,89,78,29.76,29.70,14,5,15,0.02
2012-10-23,77,60,53,66,57,52,98,90,63,29.76,29.60,15,3,15,0.00
2012-10-24,57,54,50,56,54,49,98,97,92,29.75,29.69,15,6,18,0.01
2012-10-25,41,38,35,38,33,29,93,83,75,30.38,29.80,31,15,32,0.50
2012-10-26,42,36,29,30,28,24,87,74,60,30.54,30.36,17,6,19,0.00
2012-10-27,47,35,23,33,28,20,94,78,55,30.46,30.27,12,2,13,0.00
2012-10-28,53,43,32,36,33,28,88,69,49,30.34,30.19,16,4,19,0.00
2012-10-29,60,48,39,38,35,32,79,62,43,30.23,30.05,20,7,21,0.00
2012-10-30,55,43,36,35,33,29,85,68,44,30.09,30.02,14,4,17,0.00
2012-10-31,62,44,30,41,33,26,92,69,42,30.09,29.97,9,1,11,0.00
2012-11-1,56,46,37,44,39,34,91,79,63,30.01,29.92,18,4,18,0.00
2012-11-2,53,43,36,36,34,30,93,72,48,30.09,29.94,18,6,19,0.00
2012-11-3,56,40,28,40,33,25,92,76,53,30.23,30.09,11,2,12,0.00
2012-11-4,62,46,35,44,39,32,94,78,46,30.20,29.98,18,4,20,0.09
2012-11-5,46,42,40,44,39,37,94,90,84,30.16,30.02,22,8,24,0.00
2012-11-6,58,46,37,41,35,30,93,69,39,30.09,29.95,27,9,31,0.00
2012-11-7,56,42,31,39,33,27,88,71,47,30.19,30.01,9,2,10,0.00
2012-11-8,68,49,37,44,37,31,82,65,38,30.01,29.83,18,3,22,0.00
2012-11-9,66,51,35,58,45,32,94,81,63,29.85,29.59,14,4,15,0.00
2012-11-10,78,66,40,61,56,38,92,74,55,29.65,29.38,35,12,36,0.14
2012-11-11,40,30,24,38,22,16,91,74,52,30.22,29.63,26,11,29,0.01
2012-11-12,42,30,22,22,18,15,78,62,39,30.41,30.22,26,6,29,0.00
2012-11-13,57,38,18,33,24,14,85,60,25,30.42,30.26,19,3,20,0.00
2012-11-14,60,45,32,33,30,25,79,57,33,30.31,30.17,17,4,18,0.00
2012-11-15,60,46,31,39,33,27,85,63,40,30.45,30.16,15,4,16,0.00
2012-11-16,58,39,22,40,31,19,94,76,48,30.48,30.30,15,2,15,0.00
2012-11-17,63,48,35,41,36,31,90,66,43,30.31,30.11,28,7,29,0.00
2012-11-18,61,51,39,42,36,30,72,58,41,30.14,30.00,18,6,25,0.00
2012-11-19,64,48,37,44,39,32,88,70,48,30.12,29.97,13,3,14,0.00
2012-11-20,65,46,31,42,36,28,92,70,40,30.24,30.10,10,2,10,0.00
2012-11-21,73,57,39,50,44,33,84,64,39,30.11,29.75,31,8,33,0.00
2012-11-22,62,52,39,48,41,31,82,65,49,30.23,29.68,30,9,31,0.00
2012-11-23,42,28,17,30,14,9,75,56,36,30.54,30.22,33,10,34,0.00
2012-11-24,49,33,17,27,20,10,80,60,40,30.43,29.88,22,4,22,0.00
2012-11-25,42,37,31,32,29,25,83,71,64,30.17,29.89,13,3,15,0.00
2012-11-26,36,32,28,29,25,23,91,75,70,30.49,30.17,16,8,18,0.00
2012-11-27,45,30,12,29,22,8,90,74,52,30.48,30.20,23,6,24,0.00
2012-11-28,50,33,16,34,25,14,98,74,40,30.41,30.11,16,3,16,0.00
2012-11-29,58,40,28,41,33,24,92,76,52,30.12,29.92,7,1,10,0.00
2012-11-30,47,37,29,36,30,25,92,78,64,30.11,29.95,12,3,13,0.00
2012-12-1,59,46,29,56,44,26,98,93,84,29.98,29.76,13,2,13,0.01
2012-12-2,65,44,28,51,40,27,98,85,55,30.02,29.75,11,2,15,0.00
2012-12-3,62,48,36,49,40,27,98,76,42,30.10,29.59,28,5,29,0.01
2012-12-4,62,39,24,33,26,20,84,62,31,30.30,30.09,9,1,9,0.00
2012-12-5,61,45,27,34,28,22,86,55,29,30.31,29.89,22,6,24,0.00
2012-12-6,51,47,41,36,31,29,67,55,43,30.00,29.84,21,6,23,0.00
2012-12-7,46,36,28,34,27,23,88,71,51,30.01,29.88,12,2,13,0.00
2012-12-8,39,34,27,33,30,24,92,83,73,30.03,29.86,13,3,13,0.00
2012-12-9,37,26,16,35,19,6,92,73,60,30.20,29.83,29,12,35,0.00
2012-12-10,32,18,6,10,6,1,81,62,38,30.19,29.96,22,5,25,0.00
2012-12-11,45,32,22,26,19,10,79,60,43,30.07,29.97,22,5,22,0.00
2012-12-12,54,41,26,24,21,16,69,46,28,30.01,29.91,30,10,33,0.00
2012-12-13,54,39,24,29,23,17,75,54,36,30.08,29.96,14,2,15,0.00
2012-12-14,57,38,18,44,30,14,89,72,53,30.08,29.57,20,5,22,0.08
2012-12-15,46,41,35,44,39,32,97,93,88,29.73,29.41,21,7,21,0.50
2012-12-16,35,32,30,33,29,28,92,90,87,29.84,29.72,13,4,13,0.00
2012-12-17,32,29,28,30,28,25,96,93,91,29.83,29.59,14,4,14,0.00
2012-12-18,47,35,27,40,31,26,97,88,68,29.87,29.48,25,4,28,0.05
2012-12-19,36,32,29,34,31,28,96,94,90,29.92,29.75,17,5,19,0.12
2012-12-21,27,16,7,24,14,4,92,89,85,30.39,30.22,5,0,5,0.08
2012-12-22,37,24,14,34,21,11,93,89,82,30.22,29.97,10,2,12,0.10
2012-12-23,22,14,10,19,11,7,90,88,81,30.13,30.02,11,3,11,0.00
2012-12-24,10,9,8,7,6,5,88,86,85,30.34,30.10,11,3,11,0.00
2012-12-25,14,10,8,9,6,5,86,85,78,30.50,30.33,16,4,16,0.00
2012-12-26,12,12,12,7,7,7,83,83,83,30.44,30.10,7,7,7,0.00
2012-12-27,24,19,12,21,16,7,91,87,83,30.13,30.01,14,8,14,0.00
2012-12-28,24,21,18,21,18,14,92,89,86,30.18,30.03,15,7,16,0.00
2012-12-29,26,16,11,20,13,5,89,85,76,30.29,30.17,9,2,11,0.00
2012-12-30,41,25,15,36,20,10,89,80,64,30.30,29.98,17,4,19,0.01
2012-12-31,25,22,16,20,18,12,92,85,79,30.30,30.12,10,4,12,0.00
2013-1-1,22,14,3,16,10,0,88,84,76,30.39,30.18,10,3,11,0.00